sensor_id;sensor_type;location;lat;lon;timestamp;P1;durP1;ratioP1;P2;durP2;ratioP2
28003;SDS011;15330;51.234;6.754;2023-06-14T00:00:46;8.98;;;6.75;;
28003;SDS011;15330;51.234;6.754;2023-06-14T00:03:13;9.80;;;6.72;;
28003;SDS011;15330;51.234;6.754;2023-06-14T00:05:42;8.82;;;6.88;;
28003;SDS011;15330;51.234;6.754;2023-06-14T00:08:09;10.95;;;6.60;;
28003;SDS011;15330;51.234;6.754;2023-06-14T00:10:35;8.85;;;6.70;;
28003;SDS011;15330;51.234;6.754;2023-06-14T00:13:01;7.85;;;6.97;;
28003;SDS011;15330;51.234;6.754;2023-06-14T00:15:27;13.05;;;7.35;;
28003;SDS011;15330;51.234;6.754;2023-06-14T00:17:53;16.77;;;7.20;;
28003;SDS011;15330;51.234;6.754;2023-06-14T00:20:20;9.30;;;6.43;;
28003;SDS011;15330;51.234;6.754;2023-06-14T00:22:46;11.48;;;6.72;;
28003;SDS011;15330;51.234;6.754;2023-06-14T00:25:13;17.50;;;7.25;;
28003;SDS011;15330;51.234;6.754;2023-06-14T00:27:38;8.98;;;7.28;;
28003;SDS011;15330;51.234;6.754;2023-06-14T00:30:04;8.35;;;6.60;;
28003;SDS011;15330;51.234;6.754;2023-06-14T00:32:29;11.32;;;7.47;;
28003;SDS011;15330;51.234;6.754;2023-06-14T00:34:55;8.88;;;6.75;;
28003;SDS011;15330;51.234;6.754;2023-06-14T00:37:20;13.13;;;7.00;;
28003;SDS011;15330;51.234;6.754;2023-06-14T00:39:46;13.05;;;7.00;;
28003;SDS011;15330;51.234;6.754;2023-06-14T00:42:11;12.48;;;7.43;;
28003;SDS011;15330;51.234;6.754;2023-06-14T00:44:47;11.45;;;8.32;;
28003;SDS011;15330;51.234;6.754;2023-06-14T00:47:13;12.65;;;7.80;;
28003;SDS011;15330;51.234;6.754;2023-06-14T00:49:38;12.27;;;7.25;;
28003;SDS011;15330;51.234;6.754;2023-06-14T00:52:09;13.30;;;7.47;;
28003;SDS011;15330;51.234;6.754;2023-06-14T00:54:37;9.70;;;7.47;;
28003;SDS011;15330;51.234;6.754;2023-06-14T00:57:03;11.77;;;7.45;;
28003;SDS011;15330;51.234;6.754;2023-06-14T00:59:29;11.35;;;7.78;;
28003;SDS011;15330;51.234;6.754;2023-06-14T01:05:16;7.75;;;6.63;;
28003;SDS011;15330;51.234;6.754;2023-06-14T01:10:52;8.93;;;7.78;;
28003;SDS011;15330;51.234;6.754;2023-06-14T01:13:28;11.38;;;7.00;;
28003;SDS011;15330;51.234;6.754;2023-06-14T01:15:58;9.25;;;7.03;;
28003;SDS011;15330;51.234;6.754;2023-06-14T01:18:25;10.70;;;7.28;;
28003;SDS011;15330;51.234;6.754;2023-06-14T01:20:52;9.55;;;7.30;;
28003;SDS011;15330;51.234;6.754;2023-06-14T01:23:20;12.32;;;7.85;;
28003;SDS011;15330;51.234;6.754;2023-06-14T01:25:47;9.15;;;7.35;;
28003;SDS011;15330;51.234;6.754;2023-06-14T01:28:17;10.02;;;7.55;;
28003;SDS011;15330;51.234;6.754;2023-06-14T01:30:44;10.77;;;7.68;;
28003;SDS011;15330;51.234;6.754;2023-06-14T01:33:13;10.25;;;7.45;;
28003;SDS011;15330;51.234;6.754;2023-06-14T01:35:44;11.23;;;8.45;;
28003;SDS011;15330;51.234;6.754;2023-06-14T01:38:12;15.70;;;7.53;;
28003;SDS011;15330;51.234;6.754;2023-06-14T01:40:38;9.50;;;7.00;;
28003;SDS011;15330;51.234;6.754;2023-06-14T01:43:05;10.20;;;8.18;;
28003;SDS011;15330;51.234;6.754;2023-06-14T01:45:31;10.07;;;7.45;;
28003;SDS011;15330;51.234;6.754;2023-06-14T01:47:58;9.80;;;7.18;;
28003;SDS011;15330;51.234;6.754;2023-06-14T01:50:27;13.70;;;7.30;;
28003;SDS011;15330;51.234;6.754;2023-06-14T01:52:54;13.57;;;7.90;;
28003;SDS011;15330;51.234;6.754;2023-06-14T01:55:20;10.57;;;7.88;;
28003;SDS011;15330;51.234;6.754;2023-06-14T01:57:47;11.30;;;7.88;;
28003;SDS011;15330;51.234;6.754;2023-06-14T02:00:13;12.48;;;7.72;;
28003;SDS011;15330;51.234;6.754;2023-06-14T02:02:39;9.88;;;7.75;;
28003;SDS011;15330;51.234;6.754;2023-06-14T02:05:05;13.82;;;7.43;;
28003;SDS011;15330;51.234;6.754;2023-06-14T02:07:31;12.73;;;8.10;;
28003;SDS011;15330;51.234;6.754;2023-06-14T02:09:56;11.07;;;8.02;;
28003;SDS011;15330;51.234;6.754;2023-06-14T02:12:22;12.27;;;8.10;;
28003;SDS011;15330;51.234;6.754;2023-06-14T02:14:47;16.02;;;8.13;;
28003;SDS011;15330;51.234;6.754;2023-06-14T02:17:13;10.63;;;7.30;;
28003;SDS011;15330;51.234;6.754;2023-06-14T02:19:39;11.00;;;7.45;;
28003;SDS011;15330;51.234;6.754;2023-06-14T02:22:05;8.63;;;7.32;;
28003;SDS011;15330;51.234;6.754;2023-06-14T02:24:31;14.93;;;7.50;;
28003;SDS011;15330;51.234;6.754;2023-06-14T02:26:56;9.40;;;7.45;;
28003;SDS011;15330;51.234;6.754;2023-06-14T02:29:21;10.82;;;8.18;;
28003;SDS011;15330;51.234;6.754;2023-06-14T02:31:47;16.52;;;8.23;;
28003;SDS011;15330;51.234;6.754;2023-06-14T02:34:13;12.95;;;8.25;;
28003;SDS011;15330;51.234;6.754;2023-06-14T02:36:41;10.40;;;7.47;;
28003;SDS011;15330;51.234;6.754;2023-06-14T02:39:10;10.48;;;7.90;;
28003;SDS011;15330;51.234;6.754;2023-06-14T02:41:36;10.38;;;7.78;;
28003;SDS011;15330;51.234;6.754;2023-06-14T02:44:01;13.35;;;7.63;;
28003;SDS011;15330;51.234;6.754;2023-06-14T02:46:27;12.48;;;7.47;;
28003;SDS011;15330;51.234;6.754;2023-06-14T02:48:52;11.63;;;8.02;;
28003;SDS011;15330;51.234;6.754;2023-06-14T02:51:18;12.10;;;7.80;;
28003;SDS011;15330;51.234;6.754;2023-06-14T02:53:43;12.13;;;8.25;;
28003;SDS011;15330;51.234;6.754;2023-06-14T02:56:09;9.75;;;7.50;;
28003;SDS011;15330;51.234;6.754;2023-06-14T02:58:36;14.80;;;8.02;;
28003;SDS011;15330;51.234;6.754;2023-06-14T03:01:02;10.90;;;7.93;;
28003;SDS011;15330;51.234;6.754;2023-06-14T03:03:28;10.18;;;7.43;;
28003;SDS011;15330;51.234;6.754;2023-06-14T03:05:54;11.07;;;7.78;;
28003;SDS011;15330;51.234;6.754;2023-06-14T03:08:20;10.43;;;7.28;;
28003;SDS011;15330;51.234;6.754;2023-06-14T03:10:45;13.15;;;8.38;;
28003;SDS011;15330;51.234;6.754;2023-06-14T03:13:12;10.63;;;7.88;;
28003;SDS011;15330;51.234;6.754;2023-06-14T03:15:38;10.15;;;7.90;;
28003;SDS011;15330;51.234;6.754;2023-06-14T03:18:03;13.48;;;7.53;;
28003;SDS011;15330;51.234;6.754;2023-06-14T03:20:29;11.18;;;7.63;;
28003;SDS011;15330;51.234;6.754;2023-06-14T03:22:58;10.15;;;8.13;;
28003;SDS011;15330;51.234;6.754;2023-06-14T03:25:24;10.77;;;8.02;;
28003;SDS011;15330;51.234;6.754;2023-06-14T03:27:50;10.73;;;8.23;;
28003;SDS011;15330;51.234;6.754;2023-06-14T03:30:16;11.20;;;7.90;;
28003;SDS011;15330;51.234;6.754;2023-06-14T03:32:42;10.80;;;7.82;;
28003;SDS011;15330;51.234;6.754;2023-06-14T03:35:07;12.82;;;7.88;;
28003;SDS011;15330;51.234;6.754;2023-06-14T03:37:33;11.52;;;8.02;;
28003;SDS011;15330;51.234;6.754;2023-06-14T03:39:59;10.52;;;8.00;;
28003;SDS011;15330;51.234;6.754;2023-06-14T03:42:25;12.35;;;7.32;;
28003;SDS011;15330;51.234;6.754;2023-06-14T03:44:51;9.85;;;7.53;;
28003;SDS011;15330;51.234;6.754;2023-06-14T03:47:16;10.02;;;7.70;;
28003;SDS011;15330;51.234;6.754;2023-06-14T03:49:42;8.88;;;7.05;;
28003;SDS011;15330;51.234;6.754;2023-06-14T03:52:07;15.68;;;7.82;;
28003;SDS011;15330;51.234;6.754;2023-06-14T03:54:32;12.15;;;7.95;;
28003;SDS011;15330;51.234;6.754;2023-06-14T03:56:58;8.85;;;7.25;;
28003;SDS011;15330;51.234;6.754;2023-06-14T03:59:24;11.27;;;7.40;;
28003;SDS011;15330;51.234;6.754;2023-06-14T04:01:51;11.07;;;8.02;;
28003;SDS011;15330;51.234;6.754;2023-06-14T04:04:16;12.05;;;7.70;;
28003;SDS011;15330;51.234;6.754;2023-06-14T04:06:42;11.77;;;8.20;;
28003;SDS011;15330;51.234;6.754;2023-06-14T04:09:08;14.00;;;8.15;;
28003;SDS011;15330;51.234;6.754;2023-06-14T04:11:33;9.20;;;7.30;;
28003;SDS011;15330;51.234;6.754;2023-06-14T04:13:59;9.05;;;7.50;;
28003;SDS011;15330;51.234;6.754;2023-06-14T04:16:24;12.00;;;7.82;;
28003;SDS011;15330;51.234;6.754;2023-06-14T04:18:50;11.38;;;7.57;;
28003;SDS011;15330;51.234;6.754;2023-06-14T04:21:17;12.95;;;7.43;;
28003;SDS011;15330;51.234;6.754;2023-06-14T04:23:42;11.10;;;7.05;;
28003;SDS011;15330;51.234;6.754;2023-06-14T04:26:09;12.55;;;7.72;;
28003;SDS011;15330;51.234;6.754;2023-06-14T04:28:35;12.57;;;7.93;;
28003;SDS011;15330;51.234;6.754;2023-06-14T04:31:08;10.25;;;7.90;;
28003;SDS011;15330;51.234;6.754;2023-06-14T04:33:36;14.68;;;7.47;;
28003;SDS011;15330;51.234;6.754;2023-06-14T04:36:08;11.82;;;7.95;;
28003;SDS011;15330;51.234;6.754;2023-06-14T04:38:34;11.98;;;7.05;;
28003;SDS011;15330;51.234;6.754;2023-06-14T04:41:00;11.90;;;7.88;;
28003;SDS011;15330;51.234;6.754;2023-06-14T04:43:26;11.32;;;7.70;;
28003;SDS011;15330;51.234;6.754;2023-06-14T04:45:52;12.95;;;7.57;;
28003;SDS011;15330;51.234;6.754;2023-06-14T04:48:19;15.23;;;7.65;;
28003;SDS011;15330;51.234;6.754;2023-06-14T04:50:46;8.18;;;7.15;;
28003;SDS011;15330;51.234;6.754;2023-06-14T04:53:11;11.70;;;7.28;;
28003;SDS011;15330;51.234;6.754;2023-06-14T04:55:37;9.88;;;7.22;;
28003;SDS011;15330;51.234;6.754;2023-06-14T04:58:03;13.52;;;7.88;;
28003;SDS011;15330;51.234;6.754;2023-06-14T05:00:28;12.32;;;7.47;;
28003;SDS011;15330;51.234;6.754;2023-06-14T05:02:55;11.68;;;7.35;;
28003;SDS011;15330;51.234;6.754;2023-06-14T05:05:22;11.15;;;7.53;;
28003;SDS011;15330;51.234;6.754;2023-06-14T05:07:47;17.42;;;7.80;;
28003;SDS011;15330;51.234;6.754;2023-06-14T05:10:13;10.40;;;7.18;;
28003;SDS011;15330;51.234;6.754;2023-06-14T05:12:38;15.68;;;7.72;;
28003;SDS011;15330;51.234;6.754;2023-06-14T05:15:04;11.20;;;6.97;;
28003;SDS011;15330;51.234;6.754;2023-06-14T05:17:30;12.18;;;6.18;;
28003;SDS011;15330;51.234;6.754;2023-06-14T05:19:55;12.18;;;7.70;;
28003;SDS011;15330;51.234;6.754;2023-06-14T05:22:21;11.70;;;6.57;;
28003;SDS011;15330;51.234;6.754;2023-06-14T05:24:46;9.50;;;6.68;;
28003;SDS011;15330;51.234;6.754;2023-06-14T05:27:13;9.00;;;6.50;;
28003;SDS011;15330;51.234;6.754;2023-06-14T05:29:38;11.88;;;6.57;;
28003;SDS011;15330;51.234;6.754;2023-06-14T05:32:04;12.18;;;6.68;;
28003;SDS011;15330;51.234;6.754;2023-06-14T05:34:30;11.77;;;6.68;;
28003;SDS011;15330;51.234;6.754;2023-06-14T05:36:55;8.65;;;6.45;;
28003;SDS011;15330;51.234;6.754;2023-06-14T05:39:21;13.77;;;6.32;;
28003;SDS011;15330;51.234;6.754;2023-06-14T05:41:47;9.25;;;6.25;;
28003;SDS011;15330;51.234;6.754;2023-06-14T05:44:13;9.68;;;6.00;;
28003;SDS011;15330;51.234;6.754;2023-06-14T05:46:38;9.10;;;5.63;;
28003;SDS011;15330;51.234;6.754;2023-06-14T05:49:05;9.48;;;6.05;;
28003;SDS011;15330;51.234;6.754;2023-06-14T05:51:30;11.20;;;5.97;;
28003;SDS011;15330;51.234;6.754;2023-06-14T05:53:56;9.68;;;5.78;;
28003;SDS011;15330;51.234;6.754;2023-06-14T05:56:21;12.20;;;6.00;;
28003;SDS011;15330;51.234;6.754;2023-06-14T05:58:47;10.85;;;6.05;;
28003;SDS011;15330;51.234;6.754;2023-06-14T06:01:13;7.20;;;5.65;;
28003;SDS011;15330;51.234;6.754;2023-06-14T06:03:38;12.25;;;5.90;;
28003;SDS011;15330;51.234;6.754;2023-06-14T06:06:04;10.70;;;5.90;;
28003;SDS011;15330;51.234;6.754;2023-06-14T06:08:29;11.57;;;5.65;;
28003;SDS011;15330;51.234;6.754;2023-06-14T06:10:55;8.43;;;5.68;;
28003;SDS011;15330;51.234;6.754;2023-06-14T06:13:21;10.70;;;6.03;;
28003;SDS011;15330;51.234;6.754;2023-06-14T06:15:47;7.38;;;5.40;;
28003;SDS011;15330;51.234;6.754;2023-06-14T06:18:12;12.07;;;5.93;;
28003;SDS011;15330;51.234;6.754;2023-06-14T06:20:38;8.68;;;5.18;;
28003;SDS011;15330;51.234;6.754;2023-06-14T06:23:03;9.57;;;5.03;;
28003;SDS011;15330;51.234;6.754;2023-06-14T06:25:28;6.97;;;5.30;;
28003;SDS011;15330;51.234;6.754;2023-06-14T06:27:56;11.55;;;5.45;;
28003;SDS011;15330;51.234;6.754;2023-06-14T06:30:22;9.63;;;5.07;;
28003;SDS011;15330;51.234;6.754;2023-06-14T06:32:48;11.73;;;5.20;;
28003;SDS011;15330;51.234;6.754;2023-06-14T06:35:14;8.40;;;5.28;;
28003;SDS011;15330;51.234;6.754;2023-06-14T06:37:39;9.98;;;4.65;;
28003;SDS011;15330;51.234;6.754;2023-06-14T06:40:07;8.70;;;4.43;;
28003;SDS011;15330;51.234;6.754;2023-06-14T06:42:33;8.65;;;4.47;;
28003;SDS011;15330;51.234;6.754;2023-06-14T06:44:59;10.55;;;4.75;;
28003;SDS011;15330;51.234;6.754;2023-06-14T06:47:25;10.77;;;5.07;;
28003;SDS011;15330;51.234;6.754;2023-06-14T06:49:50;11.65;;;4.47;;
28003;SDS011;15330;51.234;6.754;2023-06-14T06:52:16;12.43;;;4.57;;
28003;SDS011;15330;51.234;6.754;2023-06-14T06:54:41;5.47;;;3.78;;
28003;SDS011;15330;51.234;6.754;2023-06-14T06:57:07;7.50;;;3.75;;
28003;SDS011;15330;51.234;6.754;2023-06-14T06:59:32;7.70;;;3.22;;
28003;SDS011;15330;51.234;6.754;2023-06-14T07:01:58;5.22;;;3.50;;
28003;SDS011;15330;51.234;6.754;2023-06-14T07:04:24;6.75;;;3.28;;
28003;SDS011;15330;51.234;6.754;2023-06-14T07:06:50;7.03;;;3.10;;
28003;SDS011;15330;51.234;6.754;2023-06-14T07:09:15;3.47;;;2.63;;
28003;SDS011;15330;51.234;6.754;2023-06-14T07:11:43;8.35;;;2.85;;
28003;SDS011;15330;51.234;6.754;2023-06-14T07:14:09;5.47;;;2.70;;
28003;SDS011;15330;51.234;6.754;2023-06-14T07:16:35;6.38;;;3.15;;
28003;SDS011;15330;51.234;6.754;2023-06-14T07:19:01;4.80;;;3.60;;
28003;SDS011;15330;51.234;6.754;2023-06-14T07:21:27;6.10;;;2.92;;
28003;SDS011;15330;51.234;6.754;2023-06-14T07:23:53;6.18;;;2.97;;
28003;SDS011;15330;51.234;6.754;2023-06-14T07:26:18;8.88;;;3.00;;
28003;SDS011;15330;51.234;6.754;2023-06-14T07:28:44;4.00;;;2.60;;
28003;SDS011;15330;51.234;6.754;2023-06-14T07:31:13;5.70;;;2.60;;
28003;SDS011;15330;51.234;6.754;2023-06-14T07:33:39;3.05;;;2.50;;
28003;SDS011;15330;51.234;6.754;2023-06-14T07:36:05;7.38;;;2.72;;
28003;SDS011;15330;51.234;6.754;2023-06-14T07:38:31;5.28;;;2.60;;
28003;SDS011;15330;51.234;6.754;2023-06-14T07:40:56;6.22;;;2.83;;
28003;SDS011;15330;51.234;6.754;2023-06-14T07:43:22;5.28;;;2.95;;
28003;SDS011;15330;51.234;6.754;2023-06-14T07:45:47;3.03;;;2.63;;
28003;SDS011;15330;51.234;6.754;2023-06-14T07:48:13;3.60;;;2.70;;
28003;SDS011;15330;51.234;6.754;2023-06-14T07:50:38;3.88;;;2.72;;
28003;SDS011;15330;51.234;6.754;2023-06-14T07:53:03;3.15;;;2.70;;
28003;SDS011;15330;51.234;6.754;2023-06-14T07:55:29;3.80;;;2.45;;
28003;SDS011;15330;51.234;6.754;2023-06-14T07:57:55;4.57;;;2.40;;
28003;SDS011;15330;51.234;6.754;2023-06-14T08:00:21;8.23;;;2.53;;
28003;SDS011;15330;51.234;6.754;2023-06-14T08:02:46;5.30;;;2.33;;
28003;SDS011;15330;51.234;6.754;2023-06-14T08:05:12;6.25;;;2.70;;
28003;SDS011;15330;51.234;6.754;2023-06-14T08:07:38;6.72;;;2.40;;
28003;SDS011;15330;51.234;6.754;2023-06-14T08:10:04;5.13;;;2.47;;
28003;SDS011;15330;51.234;6.754;2023-06-14T08:12:31;2.83;;;2.42;;
28003;SDS011;15330;51.234;6.754;2023-06-14T08:14:57;6.78;;;2.20;;
28003;SDS011;15330;51.234;6.754;2023-06-14T08:17:22;3.08;;;2.03;;
28003;SDS011;15330;51.234;6.754;2023-06-14T08:19:48;5.30;;;2.50;;
28003;SDS011;15330;51.234;6.754;2023-06-14T08:22:13;5.75;;;2.65;;
28003;SDS011;15330;51.234;6.754;2023-06-14T08:24:38;5.38;;;2.45;;
28003;SDS011;15330;51.234;6.754;2023-06-14T08:27:07;4.60;;;2.10;;
28003;SDS011;15330;51.234;6.754;2023-06-14T08:29:32;4.47;;;2.55;;
28003;SDS011;15330;51.234;6.754;2023-06-14T08:31:58;3.67;;;2.15;;
28003;SDS011;15330;51.234;6.754;2023-06-14T08:34:23;6.45;;;2.47;;
28003;SDS011;15330;51.234;6.754;2023-06-14T08:36:52;9.02;;;2.17;;
28003;SDS011;15330;51.234;6.754;2023-06-14T08:39:17;5.13;;;2.70;;
28003;SDS011;15330;51.234;6.754;2023-06-14T08:41:46;3.88;;;2.30;;
28003;SDS011;15330;51.234;6.754;2023-06-14T08:44:16;5.85;;;2.25;;
28003;SDS011;15330;51.234;6.754;2023-06-14T08:46:41;4.57;;;2.40;;
28003;SDS011;15330;51.234;6.754;2023-06-14T08:49:07;6.82;;;2.95;;
28003;SDS011;15330;51.234;6.754;2023-06-14T08:51:35;5.93;;;2.33;;
28003;SDS011;15330;51.234;6.754;2023-06-14T08:54:02;3.47;;;2.25;;
28003;SDS011;15330;51.234;6.754;2023-06-14T08:56:29;13.07;;;2.90;;
28003;SDS011;15330;51.234;6.754;2023-06-14T08:58:56;6.90;;;2.58;;
28003;SDS011;15330;51.234;6.754;2023-06-14T09:01:25;5.18;;;2.58;;
28003;SDS011;15330;51.234;6.754;2023-06-14T09:03:51;4.07;;;2.40;;
28003;SDS011;15330;51.234;6.754;2023-06-14T09:06:20;4.82;;;2.20;;
28003;SDS011;15330;51.234;6.754;2023-06-14T09:08:47;3.60;;;2.30;;
28003;SDS011;15330;51.234;6.754;2023-06-14T09:11:14;4.45;;;2.05;;
28003;SDS011;15330;51.234;6.754;2023-06-14T09:13:41;4.78;;;2.10;;
28003;SDS011;15330;51.234;6.754;2023-06-14T09:16:07;4.97;;;2.22;;
28003;SDS011;15330;51.234;6.754;2023-06-14T09:18:40;2.67;;;2.17;;
28003;SDS011;15330;51.234;6.754;2023-06-14T09:21:08;8.52;;;2.50;;
28003;SDS011;15330;51.234;6.754;2023-06-14T09:23:40;4.15;;;1.88;;
28003;SDS011;15330;51.234;6.754;2023-06-14T09:28:42;8.90;;;2.17;;
28003;SDS011;15330;51.234;6.754;2023-06-14T09:31:12;9.00;;;3.03;;
28003;SDS011;15330;51.234;6.754;2023-06-14T09:33:42;3.22;;;2.20;;
28003;SDS011;15330;51.234;6.754;2023-06-14T09:36:18;6.47;;;2.40;;
28003;SDS011;15330;51.234;6.754;2023-06-14T09:41:44;5.43;;;2.78;;
28003;SDS011;15330;51.234;6.754;2023-06-14T09:44:10;6.00;;;2.70;;
28003;SDS011;15330;51.234;6.754;2023-06-14T09:46:37;7.20;;;2.30;;
28003;SDS011;15330;51.234;6.754;2023-06-14T09:49:03;4.50;;;2.78;;
28003;SDS011;15330;51.234;6.754;2023-06-14T09:51:29;7.63;;;2.30;;
28003;SDS011;15330;51.234;6.754;2023-06-14T09:53:59;3.83;;;2.30;;
28003;SDS011;15330;51.234;6.754;2023-06-14T09:56:28;3.88;;;2.10;;
28003;SDS011;15330;51.234;6.754;2023-06-14T09:58:58;4.75;;;2.63;;
28003;SDS011;15330;51.234;6.754;2023-06-14T10:01:25;5.60;;;2.40;;
28003;SDS011;15330;51.234;6.754;2023-06-14T10:04:12;2.78;;;2.40;;
28003;SDS011;15330;51.234;6.754;2023-06-14T10:06:40;7.57;;;2.70;;
28003;SDS011;15330;51.234;6.754;2023-06-14T10:09:09;5.10;;;3.10;;
28003;SDS011;15330;51.234;6.754;2023-06-14T10:11:35;4.25;;;2.15;;
28003;SDS011;15330;51.234;6.754;2023-06-14T10:14:02;5.70;;;2.15;;
28003;SDS011;15330;51.234;6.754;2023-06-14T10:16:34;2.47;;;2.28;;
28003;SDS011;15330;51.234;6.754;2023-06-14T10:19:18;2.50;;;2.15;;
28003;SDS011;15330;51.234;6.754;2023-06-14T10:24:30;4.70;;;2.42;;
28003;SDS011;15330;51.234;6.754;2023-06-14T10:27:04;4.28;;;2.22;;
28003;SDS011;15330;51.234;6.754;2023-06-14T10:29:35;3.83;;;2.63;;
28003;SDS011;15330;51.234;6.754;2023-06-14T10:32:26;3.00;;;1.98;;
28003;SDS011;15330;51.234;6.754;2023-06-14T10:34:58;5.78;;;2.45;;
28003;SDS011;15330;51.234;6.754;2023-06-14T10:37:24;5.95;;;2.42;;
28003;SDS011;15330;51.234;6.754;2023-06-14T10:39:50;8.85;;;2.20;;
28003;SDS011;15330;51.234;6.754;2023-06-14T10:42:16;3.95;;;2.08;;
28003;SDS011;15330;51.234;6.754;2023-06-14T10:52:39;4.60;;;2.60;;
28003;SDS011;15330;51.234;6.754;2023-06-14T10:57:38;4.60;;;1.90;;
28003;SDS011;15330;51.234;6.754;2023-06-14T11:00:05;8.05;;;2.33;;
28003;SDS011;15330;51.234;6.754;2023-06-14T11:11:05;8.43;;;3.33;;
28003;SDS011;15330;51.234;6.754;2023-06-14T11:13:32;10.00;;;2.70;;
28003;SDS011;15330;51.234;6.754;2023-06-14T11:15:58;6.93;;;4.00;;
28003;SDS011;15330;51.234;6.754;2023-06-14T11:18:23;5.43;;;2.58;;
28003;SDS011;15330;51.234;6.754;2023-06-14T11:20:50;10.88;;;2.30;;
28003;SDS011;15330;51.234;6.754;2023-06-14T11:23:15;7.57;;;2.78;;
28003;SDS011;15330;51.234;6.754;2023-06-14T11:25:40;8.55;;;2.90;;
28003;SDS011;15330;51.234;6.754;2023-06-14T11:28:06;5.22;;;2.30;;
28003;SDS011;15330;51.234;6.754;2023-06-14T11:30:32;10.70;;;2.70;;
28003;SDS011;15330;51.234;6.754;2023-06-14T11:32:57;4.30;;;2.20;;
28003;SDS011;15330;51.234;6.754;2023-06-14T11:35:23;2.80;;;2.05;;
28003;SDS011;15330;51.234;6.754;2023-06-14T11:37:52;5.15;;;2.13;;
28003;SDS011;15330;51.234;6.754;2023-06-14T11:40:18;3.95;;;2.60;;
28003;SDS011;15330;51.234;6.754;2023-06-14T11:42:46;8.90;;;2.13;;
28003;SDS011;15330;51.234;6.754;2023-06-14T11:45:12;3.83;;;2.00;;
28003;SDS011;15330;51.234;6.754;2023-06-14T11:47:38;6.72;;;2.10;;
28003;SDS011;15330;51.234;6.754;2023-06-14T11:50:05;3.22;;;2.08;;
28003;SDS011;15330;51.234;6.754;2023-06-14T11:52:36;3.80;;;2.10;;
28003;SDS011;15330;51.234;6.754;2023-06-14T11:55:02;5.68;;;2.03;;
28003;SDS011;15330;51.234;6.754;2023-06-14T11:57:34;8.25;;;2.20;;
28003;SDS011;15330;51.234;6.754;2023-06-14T12:00:04;5.60;;;2.15;;
28003;SDS011;15330;51.234;6.754;2023-06-14T12:02:37;3.90;;;2.15;;
28003;SDS011;15330;51.234;6.754;2023-06-14T12:05:06;8.00;;;1.88;;
28003;SDS011;15330;51.234;6.754;2023-06-14T12:07:38;6.65;;;1.77;;
28003;SDS011;15330;51.234;6.754;2023-06-14T12:10:05;5.90;;;2.25;;
28003;SDS011;15330;51.234;6.754;2023-06-14T12:12:39;15.00;;;2.42;;
28003;SDS011;15330;51.234;6.754;2023-06-14T12:15:08;8.30;;;2.10;;
28003;SDS011;15330;51.234;6.754;2023-06-14T12:17:38;8.20;;;2.10;;
28003;SDS011;15330;51.234;6.754;2023-06-14T12:20:13;5.95;;;1.88;;
28003;SDS011;15330;51.234;6.754;2023-06-14T12:28:06;2.88;;;2.03;;
28003;SDS011;15330;51.234;6.754;2023-06-14T12:33:01;3.90;;;2.00;;
28003;SDS011;15330;51.234;6.754;2023-06-14T12:35:27;5.43;;;2.10;;
28003;SDS011;15330;51.234;6.754;2023-06-14T12:37:52;5.72;;;2.05;;
28003;SDS011;15330;51.234;6.754;2023-06-14T12:40:17;1.98;;;1.77;;
28003;SDS011;15330;51.234;6.754;2023-06-14T12:42:44;6.55;;;1.70;;
28003;SDS011;15330;51.234;6.754;2023-06-14T12:45:12;2.38;;;1.50;;
28003;SDS011;15330;51.234;6.754;2023-06-14T12:47:37;6.68;;;1.98;;
28003;SDS011;15330;51.234;6.754;2023-06-14T12:50:02;12.68;;;2.25;;
28003;SDS011;15330;51.234;6.754;2023-06-14T12:52:28;3.75;;;1.90;;
28003;SDS011;15330;51.234;6.754;2023-06-14T12:54:53;3.80;;;1.90;;
28003;SDS011;15330;51.234;6.754;2023-06-14T12:57:19;2.00;;;1.90;;
28003;SDS011;15330;51.234;6.754;2023-06-14T12:59:44;7.30;;;2.20;;
28003;SDS011;15330;51.234;6.754;2023-06-14T13:02:15;3.08;;;2.10;;
28003;SDS011;15330;51.234;6.754;2023-06-14T13:04:42;5.35;;;1.92;;
28003;SDS011;15330;51.234;6.754;2023-06-14T13:07:08;6.53;;;2.38;;
28003;SDS011;15330;51.234;6.754;2023-06-14T13:09:35;5.03;;;2.33;;
28003;SDS011;15330;51.234;6.754;2023-06-14T13:12:01;5.75;;;2.05;;
28003;SDS011;15330;51.234;6.754;2023-06-14T13:14:26;2.22;;;1.80;;
28003;SDS011;15330;51.234;6.754;2023-06-14T13:16:52;2.58;;;1.60;;
28003;SDS011;15330;51.234;6.754;2023-06-14T13:19:17;18.33;;;2.25;;
28003;SDS011;15330;51.234;6.754;2023-06-14T13:21:42;6.68;;;2.10;;
28003;SDS011;15330;51.234;6.754;2023-06-14T13:24:08;6.82;;;2.15;;
28003;SDS011;15330;51.234;6.754;2023-06-14T13:26:33;6.85;;;2.20;;
28003;SDS011;15330;51.234;6.754;2023-06-14T13:28:59;2.70;;;2.15;;
28003;SDS011;15330;51.234;6.754;2023-06-14T13:31:24;6.97;;;2.00;;
28003;SDS011;15330;51.234;6.754;2023-06-14T13:33:50;3.05;;;1.90;;
28003;SDS011;15330;51.234;6.754;2023-06-14T13:36:15;5.10;;;2.30;;
28003;SDS011;15330;51.234;6.754;2023-06-14T13:38:41;5.28;;;1.83;;
28003;SDS011;15330;51.234;6.754;2023-06-14T13:41:06;2.50;;;2.30;;
28003;SDS011;15330;51.234;6.754;2023-06-14T13:43:32;4.22;;;2.05;;
28003;SDS011;15330;51.234;6.754;2023-06-14T13:45:57;2.80;;;2.25;;
28003;SDS011;15330;51.234;6.754;2023-06-14T13:48:22;4.47;;;2.13;;
28003;SDS011;15330;51.234;6.754;2023-06-14T13:50:48;4.25;;;2.22;;
28003;SDS011;15330;51.234;6.754;2023-06-14T13:53:14;11.68;;;2.45;;
28003;SDS011;15330;51.234;6.754;2023-06-14T13:55:39;5.85;;;2.70;;
28003;SDS011;15330;51.234;6.754;2023-06-14T13:58:05;5.30;;;2.80;;
28003;SDS011;15330;51.234;6.754;2023-06-14T14:00:30;16.38;;;4.28;;
28003;SDS011;15330;51.234;6.754;2023-06-14T14:02:55;6.13;;;2.90;;
28003;SDS011;15330;51.234;6.754;2023-06-14T14:05:22;10.88;;;2.65;;
28003;SDS011;15330;51.234;6.754;2023-06-14T14:07:51;6.72;;;2.40;;
28003;SDS011;15330;51.234;6.754;2023-06-14T14:10:17;6.57;;;2.30;;
28003;SDS011;15330;51.234;6.754;2023-06-14T14:12:45;8.18;;;2.65;;
28003;SDS011;15330;51.234;6.754;2023-06-14T14:15:11;6.50;;;2.45;;
28003;SDS011;15330;51.234;6.754;2023-06-14T14:17:39;4.93;;;2.60;;
28003;SDS011;15330;51.234;6.754;2023-06-14T14:20:05;6.32;;;2.40;;
28003;SDS011;15330;51.234;6.754;2023-06-14T14:22:31;7.40;;;2.60;;
28003;SDS011;15330;51.234;6.754;2023-06-14T14:24:57;2.72;;;2.53;;
28003;SDS011;15330;51.234;6.754;2023-06-14T14:27:22;4.88;;;2.40;;
28003;SDS011;15330;51.234;6.754;2023-06-14T14:29:48;7.18;;;2.92;;
28003;SDS011;15330;51.234;6.754;2023-06-14T14:32:13;7.78;;;2.60;;
28003;SDS011;15330;51.234;6.754;2023-06-14T14:34:40;3.47;;;2.60;;
28003;SDS011;15330;51.234;6.754;2023-06-14T14:37:05;3.55;;;2.72;;
28003;SDS011;15330;51.234;6.754;2023-06-14T14:39:31;3.92;;;2.50;;
28003;SDS011;15330;51.234;6.754;2023-06-14T14:41:56;5.25;;;2.50;;
28003;SDS011;15330;51.234;6.754;2023-06-14T14:44:22;8.55;;;2.50;;
28003;SDS011;15330;51.234;6.754;2023-06-14T14:46:47;7.90;;;2.60;;
28003;SDS011;15330;51.234;6.754;2023-06-14T14:49:12;6.25;;;2.50;;
28003;SDS011;15330;51.234;6.754;2023-06-14T14:51:38;3.53;;;2.50;;
28003;SDS011;15330;51.234;6.754;2023-06-14T14:54:04;5.93;;;2.53;;
28003;SDS011;15330;51.234;6.754;2023-06-14T14:56:31;4.68;;;2.45;;
28003;SDS011;15330;51.234;6.754;2023-06-14T14:58:56;8.95;;;2.70;;
28003;SDS011;15330;51.234;6.754;2023-06-14T15:01:22;5.93;;;2.90;;
28003;SDS011;15330;51.234;6.754;2023-06-14T15:03:47;3.95;;;2.20;;
28003;SDS011;15330;51.234;6.754;2023-06-14T15:06:13;4.72;;;2.53;;
28003;SDS011;15330;51.234;6.754;2023-06-14T15:08:38;7.75;;;2.90;;
28003;SDS011;15330;51.234;6.754;2023-06-14T15:11:03;6.18;;;2.75;;
28003;SDS011;15330;51.234;6.754;2023-06-14T15:13:29;4.38;;;2.42;;
28003;SDS011;15330;51.234;6.754;2023-06-14T15:15:54;4.78;;;2.63;;
28003;SDS011;15330;51.234;6.754;2023-06-14T15:18:19;5.53;;;2.70;;
28003;SDS011;15330;51.234;6.754;2023-06-14T15:20:46;7.07;;;2.60;;